Time;durP1;ratioP1;P1;durP2;ratioP2;P2;SDS_P1;SDS_P2;PMS_P1;PMS_P2;Temp;Humidity;BMP_temperature;BMP_pressure;BME280_temperature;BME280_humidity;BME280_pressure;Samples;Min_cycle;Max_cycle;Signal;HPM_P1;HPM_P2
2023/10/08 00:01:42;;;;;;;1.00;0.40;;;10.90;99.90;;;;;;8266798;28;20246;-62
2023/10/08 00:05:43;;;;;;;0.90;0.60;;;10.90;99.90;;;;;;8255510;28;20289;-63
2023/10/08 00:09:44;;;;;;;0.73;0.27;;;10.80;99.90;;;;;;8275920;28;20190;-68
2023/10/08 00:13:48;;;;;;;0.70;0.40;;;10.80;99.90;;;;;;8273560;28;20215;-61
2023/10/08 00:17:49;;;;;;;0.23;0.20;;;10.80;99.90;;;;;;8274809;28;20264;-62
2023/10/08 00:21:52;;;;;;;0.47;0.23;;;10.80;99.90;;;;;;8275193;28;20192;-61
2023/10/08 00:25:54;;;;;;;2.97;0.50;;;10.70;99.90;;;;;;8275009;28;20229;-61
2023/10/08 00:29:56;;;;;;;0.80;0.43;;;10.70;99.90;;;;;;8263133;28;20191;-62
2023/10/08 00:34:03;;;;;;;0.70;0.30;;;10.70;99.90;;;;;;8274913;28;20207;-61
2023/10/08 00:38:14;;;;;;;0.80;0.43;;;10.70;99.90;;;;;;8272472;28;20195;-62
2023/10/08 00:42:15;;;;;;;0.50;0.30;;;10.60;99.90;;;;;;8261325;28;20178;-62
2023/10/08 00:46:22;;;;;;;2.63;0.20;;;10.60;99.90;;;;;;8258351;28;20190;-63
2023/10/08 00:50:31;;;;;;;0.40;0.20;;;10.60;99.90;;;;;;8271274;28;20197;-62
2023/10/08 00:54:32;;;;;;;0.33;0.30;;;10.50;99.90;;;;;;8256351;28;20294;-63
2023/10/08 00:58:34;;;;;;;0.83;0.30;;;10.50;99.90;;;;;;8258231;28;20191;-64
2023/10/08 01:02:48;;;;;;;0.60;0.40;;;10.50;99.90;;;;;;8277137;28;20266;-62
2023/10/08 01:06:59;;;;;;;2.60;0.60;;;10.40;99.90;;;;;;8254747;28;20188;-61
2023/10/08 01:11:00;;;;;;;1.13;0.50;;;10.50;99.90;;;;;;8255537;28;20189;-61
2023/10/08 01:19:25;;;;;;;1.03;0.40;;;10.50;99.90;;;;;;8272617;28;20277;-62
2023/10/08 01:23:28;;;;;;;0.50;0.40;;;10.40;99.90;;;;;;8252057;28;20241;-62
2023/10/08 01:27:34;;;;;;;0.83;0.30;;;10.40;99.90;;;;;;8272874;28;20180;-62
2023/10/08 01:31:36;;;;;;;1.47;0.47;;;10.40;99.90;;;;;;8253973;28;20550;-62
2023/10/08 01:35:38;;;;;;;1.13;0.50;;;10.30;99.90;;;;;;8256839;28;20402;-63
2023/10/08 01:39:42;;;;;;;1.33;0.77;;;10.20;99.90;;;;;;8271054;28;20192;-64
2023/10/08 01:43:44;;;;;;;2.30;0.80;;;10.10;99.90;;;;;;8256541;28;20192;-62
2023/10/08 01:47:47;;;;;;;2.60;0.83;;;10.00;99.90;;;;;;8255635;28;20249;-62
2023/10/08 01:51:51;;;;;;;2.60;1.00;;;9.90;99.90;;;;;;8252607;28;20307;-62
2023/10/08 01:55:53;;;;;;;2.10;0.60;;;9.90;99.90;;;;;;8254658;28;20219;-62
2023/10/08 01:59:54;;;;;;;1.00;0.40;;;9.80;99.90;;;;;;8269600;28;20215;-64
2023/10/08 02:03:56;;;;;;;2.97;1.00;;;9.80;99.90;;;;;;8256649;28;20200;-63
2023/10/08 02:07:58;;;;;;;1.60;0.53;;;9.80;99.90;;;;;;8252494;28;20591;-65
2023/10/08 02:11:59;;;;;;;0.87;0.70;;;9.60;99.90;;;;;;8274092;28;20608;-64
2023/10/08 02:16:00;;;;;;;4.07;0.90;;;9.50;99.90;;;;;;8254570;28;20218;-63
2023/10/08 02:20:05;;;;;;;1.60;0.70;;;9.40;99.90;;;;;;8256532;28;20219;-62
2023/10/08 02:24:07;;;;;;;2.30;0.70;;;9.30;99.90;;;;;;8273213;28;20203;-64
2023/10/08 02:28:08;;;;;;;3.23;0.97;;;9.20;99.90;;;;;;8270238;28;20188;-62
2023/10/08 02:32:09;;;;;;;3.40;1.13;;;9.20;99.90;;;;;;8273209;28;20202;-66
2023/10/08 02:36:10;;;;;;;2.80;0.90;;;9.10;99.90;;;;;;8254476;28;20211;-64
2023/10/08 02:40:30;;;;;;;8.00;1.10;;;9.10;99.90;;;;;;8255672;28;20190;-64
2023/10/08 02:44:32;;;;;;;5.80;1.50;;;9.10;99.90;;;;;;8271636;28;20179;-63
2023/10/08 02:48:34;;;;;;;5.20;1.27;;;9.00;99.90;;;;;;8253166;28;20654;-65
2023/10/08 02:52:35;;;;;;;3.80;1.03;;;9.00;99.90;;;;;;8271422;28;20194;-65
2023/10/08 02:56:36;;;;;;;4.27;0.90;;;9.00;99.90;;;;;;8258059;28;20285;-64
2023/10/08 03:00:40;;;;;;;6.47;1.53;;;9.00;99.90;;;;;;8272060;28;20235;-64
2023/10/08 03:04:45;;;;;;;5.47;1.43;;;9.00;99.90;;;;;;8255126;28;20251;-64
2023/10/08 03:08:47;;;;;;;5.13;1.37;;;9.00;99.90;;;;;;8255197;28;20310;-63
2023/10/08 03:12:49;;;;;;;5.83;1.43;;;9.00;99.90;;;;;;8260509;28;20265;-63
2023/10/08 03:16:52;;;;;;;4.80;1.43;;;9.00;99.90;;;;;;8261067;28;21068;-64
2023/10/08 03:20:53;;;;;;;4.13;1.30;;;9.00;99.90;;;;;;8259374;28;20465;-64
2023/10/08 03:24:56;;;;;;;5.50;1.60;;;9.00;99.90;;;;;;8257199;28;20206;-65
2023/10/08 03:29:00;;;;;;;4.20;1.50;;;8.90;99.90;;;;;;8259606;28;20266;-63
2023/10/08 03:33:04;;;;;;;3.47;1.40;;;8.90;99.90;;;;;;8258204;28;20238;-63
2023/10/08 03:37:07;;;;;;;2.13;1.27;;;8.90;99.90;;;;;;8260119;28;20195;-63
2023/10/08 03:41:09;;;;;;;4.30;1.27;;;9.00;99.90;;;;;;8283453;28;20194;-68
2023/10/08 03:45:16;;;;;;;4.03;1.33;;;9.00;99.90;;;;;;8278822;28;20217;-70
2023/10/08 03:53:33;;;;;;;6.83;1.80;;;9.00;99.90;;;;;;8295797;28;20199;-68
2023/10/08 03:57:42;;;;;;;4.17;1.40;;;8.90;99.90;;;;;;8295024;28;20195;-68
2023/10/08 04:01:43;;;;;;;5.83;1.80;;;8.90;99.90;;;;;;8278326;28;20235;-69
2023/10/08 04:06:06;;;;;;;6.43;1.50;;;8.90;99.90;;;;;;8295805;28;20198;-68
2023/10/08 04:14:11;;;;;;;8.13;1.50;;;8.90;99.90;;;;;;8296648;28;20290;-70
2023/10/08 04:18:20;;;;;;;3.53;1.57;;;8.90;99.90;;;;;;8278297;28;20202;-69
2023/10/08 04:22:28;;;;;;;3.90;1.87;;;8.90;99.90;;;;;;8288564;28;20187;-69
2023/10/08 04:26:31;;;;;;;4.67;1.70;;;8.80;99.90;;;;;;8293895;28;20194;-67
2023/10/08 04:30:36;;;;;;;4.13;1.90;;;8.80;99.90;;;;;;8291339;28;20183;-69
2023/10/08 04:34:47;;;;;;;3.47;1.60;;;8.80;99.90;;;;;;8277729;28;20215;-70
2023/10/08 04:38:55;;;;;;;7.27;1.73;;;8.80;99.90;;;;;;8291884;28;20175;-70
2023/10/08 04:43:02;;;;;;;8.00;2.30;;;8.80;99.90;;;;;;8295508;28;20172;-69
2023/10/08 04:47:31;;;;;;;6.00;1.80;;;8.70;99.90;;;;;;8275567;28;20175;-68
2023/10/08 04:51:40;;;;;;;7.03;1.47;;;8.80;99.90;;;;;;8294373;28;20181;-71
2023/10/08 04:55:48;;;;;;;8.53;1.70;;;8.80;99.90;;;;;;8271908;28;20211;-69
2023/10/08 05:00:00;;;;;;;5.47;1.70;;;8.80;99.90;;;;;;8291715;28;20203;-67
2023/10/08 05:08:17;;;;;;;5.73;2.10;;;8.80;99.90;;;;;;8293218;28;20236;-70
2023/10/08 05:12:38;;;;;;;8.07;1.83;;;8.80;99.90;;;;;;8260329;28;20184;-69
2023/10/08 05:17:00;;;;;;;6.43;2.67;;;8.80;99.90;;;;;;8261546;28;20188;-67
2023/10/08 05:21:19;;;;;;;7.47;2.20;;;8.90;99.90;;;;;;8262737;28;20178;-69
2023/10/08 05:25:35;;;;;;;8.80;1.87;;;8.90;99.90;;;;;;8258941;28;20207;-69
2023/10/08 05:29:52;;;;;;;4.40;2.00;;;8.90;99.90;;;;;;8280872;28;20183;-68
2023/10/08 05:38:37;;;;;;;8.87;2.77;;;9.10;99.90;;;;;;8279809;28;20194;-71
2023/10/08 05:42:46;;;;;;;6.43;2.90;;;9.10;99.90;;;;;;8278108;28;20191;-70
2023/10/08 05:51:33;;;;;;;9.90;3.63;;;9.20;99.90;;;;;;8265095;28;20282;-70
2023/10/08 05:55:36;;;;;;;7.93;3.43;;;9.20;99.90;;;;;;8281253;28;20298;-70
2023/10/08 06:00:29;;;;;;;10.80;4.07;;;9.20;99.90;;;;;;8289926;28;20211;-71
2023/10/08 06:09:06;;;;;;;8.47;4.57;;;9.30;99.90;;;;;;8183114;28;20318;-71
2023/10/08 06:13:10;;;;;;;8.93;3.77;;;9.40;99.90;;;;;;8275401;28;20223;-71
2023/10/08 06:17:23;;;;;;;8.97;4.57;;;9.40;99.90;;;;;;8280367;28;20212;-71
2023/10/08 06:21:26;;;;;;;11.00;4.43;;;9.40;99.90;;;;;;8283639;28;20186;-71
2023/10/08 06:25:27;;;;;;;11.97;5.03;;;9.50;99.90;;;;;;8270234;28;20299;-70
2023/10/08 06:29:29;;;;;;;10.47;5.50;;;9.70;99.90;;;;;;8262999;28;20183;-69
2023/10/08 06:33:33;;;;;;;9.43;5.80;;;9.80;99.90;;;;;;8258010;28;20219;-68
2023/10/08 06:37:34;;;;;;;17.40;7.77;;;9.90;99.90;;;;;;8271896;28;20185;-69
2023/10/08 06:41:36;;;;;;;10.97;5.50;;;9.90;99.90;;;;;;8275070;28;20188;-67
2023/10/08 06:45:40;;;;;;;9.97;5.63;;;10.00;99.90;;;;;;8272155;28;20196;-68
2023/10/08 06:49:43;;;;;;;8.97;5.47;;;10.00;99.90;;;;;;8271647;28;20178;-66
2023/10/08 06:53:47;;;;;;;9.90;5.80;;;10.10;99.90;;;;;;8273977;28;20207;-65
2023/10/08 06:57:48;;;;;;;10.10;4.63;;;10.20;99.90;;;;;;8253788;28;20423;-69
2023/10/08 07:01:51;;;;;;;6.83;4.40;;;10.40;99.90;;;;;;8273556;28;20205;-69
2023/10/08 07:05:57;;;;;;;7.27;4.00;;;10.50;99.90;;;;;;8272712;28;20197;-68
2023/10/08 07:09:59;;;;;;;6.40;4.50;;;10.40;99.90;;;;;;8253350;28;20180;-66
2023/10/08 07:14:04;;;;;;;7.23;4.13;;;10.50;99.90;;;;;;8256398;28;20208;-66
2023/10/08 07:18:19;;;;;;;8.30;4.03;;;10.50;99.90;;;;;;8245298;28;20194;-67
2023/10/08 07:22:23;;;;;;;8.23;4.00;;;10.60;99.90;;;;;;8268066;28;20314;-67
2023/10/08 07:26:25;;;;;;;6.00;3.80;;;10.40;99.90;;;;;;8251479;28;20197;-67
2023/10/08 07:30:32;;;;;;;9.50;4.43;;;10.20;99.90;;;;;;8264979;28;20183;-69
2023/10/08 07:34:33;;;;;;;5.87;3.70;;;10.10;99.90;;;;;;8249693;28;20240;-68
2023/10/08 07:38:34;;;;;;;7.07;3.83;;;10.00;99.90;;;;;;8268244;28;20414;-68
2023/10/08 07:42:36;;;;;;;5.20;3.30;;;10.10;99.90;;;;;;8266582;28;20185;-68
2023/10/08 07:46:37;;;;;;;6.37;3.30;;;10.30;99.90;;;;;;8265506;28;20206;-67
2023/10/08 07:50:45;;;;;;;5.60;2.83;;;10.90;99.90;;;;;;8248930;28;20472;-72
2023/10/08 07:54:48;;;;;;;6.73;2.43;;;11.40;11.30;;;;;;8273802;28;20217;-69
2023/10/08 07:58:49;;;;;;;4.23;2.80;;;11.70;99.90;;;;;;8258556;28;20221;-70
2023/10/08 08:02:52;;;;;;;6.43;2.40;;;12.00;99.90;;;;;;8256054;28;20222;-70
2023/10/08 08:06:52;;;;;;;3.97;1.83;;;12.10;99.90;;;;;;8260595;28;20203;-68
2023/10/08 08:10:57;;;;;;;5.63;2.30;;;11.50;99.90;;;;;;8254483;28;20198;-67
2023/10/08 08:14:59;;;;;;;4.57;2.43;;;11.10;99.90;;;;;;8277004;28;20211;-67
2023/10/08 08:19:00;;;;;;;6.43;2.43;;;10.70;1.00;;;;;;8261136;28;20194;-66
2023/10/08 08:23:06;;;;;;;5.53;1.90;;;10.60;1.00;;;;;;8274587;28;20302;-66
2023/10/08 08:27:31;;;;;;;4.60;2.23;;;10.70;1.00;;;;;;8255476;28;20194;-66
2023/10/08 08:31:35;;;;;;;3.43;1.67;;;10.80;1.00;;;;;;8271206;28;20214;-67
2023/10/08 08:35:36;;;;;;;5.50;2.17;;;11.00;99.90;;;;;;8269676;28;20276;-68
2023/10/08 08:39:37;;;;;;;18.30;11.40;;;11.40;99.90;;;;;;8275067;28;20203;-68
2023/10/08 08:43:43;;;;;;;30.83;13.97;;;11.90;99.90;;;;;;8259893;28;20198;-68
2023/10/08 08:47:45;;;;;;;4.10;1.77;;;12.00;73.20;;;;;;8270074;28;20193;-68
2023/10/08 08:51:52;;;;;;;3.00;0.90;;;12.20;87.60;;;;;;8272417;28;20187;-69
2023/10/08 08:55:54;;;;;;;4.43;1.30;;;12.20;59.50;;;;;;8258878;28;20283;-70
2023/10/08 08:59:57;;;;;;;3.60;1.10;;;11.60;73.00;;;;;;8271292;28;20231;-66
2023/10/08 09:04:05;;;;;;;2.37;0.90;;;11.00;98.40;;;;;;8258943;28;20193;-67
2023/10/08 09:08:06;;;;;;;3.23;1.13;;;10.80;63.50;;;;;;8271794;28;20237;-69
2023/10/08 09:12:10;;;;;;;2.10;1.10;;;10.90;52.90;;;;;;8253460;28;20255;-66
2023/10/08 09:16:14;;;;;;;5.33;1.40;;;11.00;14.40;;;;;;8249726;28;20217;-67
2023/10/08 09:20:16;;;;;;;1.93;1.00;;;11.20;9.20;;;;;;8268566;28;20195;-67
2023/10/08 09:24:20;;;;;;;2.13;0.77;;;11.50;1.00;;;;;;8255025;28;20199;-66
2023/10/08 09:28:25;;;;;;;2.23;0.77;;;11.60;1.00;;;;;;8256831;28;20197;-68
2023/10/08 09:32:25;;;;;;;1.50;0.60;;;11.70;1.00;;;;;;8273606;28;20247;-66
2023/10/08 09:36:32;;;;;;;1.03;0.40;;;11.70;1.00;;;;;;8269894;28;20510;-68
2023/10/08 09:40:32;;;;;;;2.50;0.70;;;11.80;1.00;;;;;;8251664;28;20183;-68
2023/10/08 09:44:33;;;;;;;0.60;0.40;;;11.80;1.00;;;;;;8253179;28;20193;-69
2023/10/08 09:48:38;;;;;;;1.13;0.40;;;11.90;1.00;;;;;;8252825;28;20540;-66
2023/10/08 09:52:59;;;;;;;1.20;0.50;;;12.00;1.00;;;;;;8248613;28;20202;-68
2023/10/08 09:57:03;;;;;;;2.50;0.83;;;12.10;1.00;;;;;;8259083;28;20211;-71
2023/10/08 10:01:06;;;;;;;1.60;0.60;;;12.10;1.00;;;;;;8252061;28;20302;-68
2023/10/08 10:05:20;;;;;;;1.60;0.57;;;12.20;1.00;;;;;;8271895;28;20176;-67
2023/10/08 10:09:24;;;;;;;1.40;0.80;;;12.30;1.00;;;;;;8272590;28;20242;-67
2023/10/08 10:13:29;;;;;;;1.10;0.70;;;12.40;1.00;;;;;;8269220;28;20203;-68
2023/10/08 10:17:30;;;;;;;2.30;0.60;;;12.40;1.00;;;;;;8251722;28;20499;-66
2023/10/08 10:21:33;;;;;;;0.43;0.40;;;12.50;1.00;;;;;;8249456;28;20194;-70
2023/10/08 10:25:41;;;;;;;2.30;0.70;;;12.60;1.00;;;;;;8270639;28;20651;-66
2023/10/08 10:29:44;;;;;;;2.40;0.60;;;12.70;1.00;;;;;;8253710;28;20197;-67
2023/10/08 10:33:46;;;;;;;0.90;0.50;;;12.70;1.00;;;;;;8269435;28;20248;-68
2023/10/08 10:37:55;;;;;;;3.10;0.90;;;12.60;1.00;;;;;;8251019;28;20194;-73
2023/10/08 10:42:01;;;;;;;2.57;0.57;;;12.50;1.00;;;;;;8266397;28;20191;-68
2023/10/08 10:50:31;;;;;;;1.17;0.80;;;12.60;1.00;;;;;;8261773;28;20226;-67
2023/10/08 10:54:36;;;;;;;1.03;0.57;;;12.90;1.00;;;;;;8265072;28;20207;-64
2023/10/08 10:58:41;;;;;;;1.80;0.63;;;12.90;1.00;;;;;;8249885;28;20187;-67
2023/10/08 11:02:48;;;;;;;3.70;0.77;;;12.80;1.00;;;;;;8270363;28;20210;-67
2023/10/08 11:06:51;;;;;;;1.00;0.40;;;12.90;1.00;;;;;;8249509;28;20183;-67
2023/10/08 11:10:53;;;;;;;1.53;0.40;;;12.90;1.00;;;;;;8250391;28;20199;-68
2023/10/08 11:14:56;;;;;;;1.87;0.50;;;12.90;1.00;;;;;;8246580;28;20289;-64
2023/10/08 11:19:01;;;;;;;1.03;0.60;;;13.00;1.00;;;;;;8269819;28;20270;-66
2023/10/08 11:23:17;;;;;;;0.87;0.50;;;13.00;1.00;;;;;;8266097;28;20179;-67
2023/10/08 11:27:35;;;;;;;1.47;0.43;;;12.90;1.00;;;;;;8270743;28;20196;-67
2023/10/08 11:31:36;;;;;;;0.63;0.40;;;12.90;1.00;;;;;;8270950;28;20184;-68
2023/10/08 11:35:58;;;;;;;1.17;0.40;;;13.10;1.00;;;;;;8275645;28;20206;-66
2023/10/08 11:40:09;;;;;;;1.37;0.57;;;13.10;1.00;;;;;;8256494;28;20184;-68
2023/10/08 11:44:13;;;;;;;1.07;0.33;;;13.20;1.00;;;;;;8261330;28;20291;-67
2023/10/08 11:48:28;;;;;;;1.07;0.50;;;13.30;1.00;;;;;;8273638;28;20194;-69
2023/10/08 11:52:29;;;;;;;0.87;0.43;;;13.40;1.00;;;;;;8257149;28;20191;-67
2023/10/08 11:56:30;;;;;;;0.80;0.50;;;13.30;1.00;;;;;;8262015;28;20258;-69
2023/10/08 12:00:31;;;;;;;1.50;0.40;;;13.20;1.00;;;;;;8273924;28;20204;-68
2023/10/08 12:04:31;;;;;;;2.63;0.50;;;13.20;1.00;;;;;;8260959;28;20207;-68
2023/10/08 12:08:39;;;;;;;1.10;0.37;;;13.10;1.00;;;;;;8254535;28;20202;-69
2023/10/08 12:12:40;;;;;;;0.73;0.47;;;13.20;1.00;;;;;;8258645;28;20313;-68
2023/10/08 12:16:45;;;;;;;2.30;0.50;;;13.40;1.00;;;;;;8270956;28;20220;-71
2023/10/08 12:20:47;;;;;;;1.17;0.43;;;13.50;1.00;;;;;;8274589;28;20309;-68
2023/10/08 12:24:48;;;;;;;1.00;0.47;;;13.40;1.00;;;;;;8272446;28;20202;-68
2023/10/08 12:28:49;;;;;;;0.87;0.37;;;13.50;1.00;;;;;;8273424;28;20192;-70
2023/10/08 12:32:50;;;;;;;2.20;0.70;;;13.70;1.00;;;;;;8271020;28;20251;-69
2023/10/08 12:36:51;;;;;;;0.63;0.33;;;13.90;1.00;;;;;;8257954;28;20476;-70
2023/10/08 12:40:52;;;;;;;0.67;0.40;;;13.70;1.00;;;;;;8252801;28;20197;-70
2023/10/08 12:44:57;;;;;;;1.23;0.47;;;13.60;1.00;;;;;;8270148;28;20188;-70
2023/10/08 12:49:01;;;;;;;1.10;0.37;;;13.70;1.00;;;;;;8270900;28;20223;-72
2023/10/08 12:53:03;;;;;;;0.60;0.30;;;13.40;1.00;;;;;;8278716;28;20183;-69
2023/10/08 12:57:08;;;;;;;1.77;0.40;;;13.40;1.00;;;;;;8271663;28;20213;-70
2023/10/08 13:01:13;;;;;;;1.00;0.40;;;13.50;1.00;;;;;;8269457;28;20225;-70
2023/10/08 13:05:16;;;;;;;1.00;0.50;;;13.80;1.00;;;;;;8252346;28;21151;-69
2023/10/08 13:09:17;;;;;;;2.10;0.90;;;14.00;1.00;;;;;;8254087;28;20184;-69
2023/10/08 13:13:18;;;;;;;1.70;0.50;;;14.10;1.00;;;;;;8269123;28;20203;-68
2023/10/08 13:17:19;;;;;;;3.10;0.40;;;13.80;1.00;;;;;;8251064;28;20425;-65
2023/10/08 13:21:21;;;;;;;1.43;0.50;;;13.50;1.00;;;;;;8268839;28;20182;-70
2023/10/08 13:25:22;;;;;;;1.50;0.90;;;13.60;1.00;;;;;;8269255;28;20219;-70
2023/10/08 13:29:26;;;;;;;1.17;0.30;;;13.90;1.00;;;;;;8253703;28;20202;-71
2023/10/08 13:33:28;;;;;;;0.80;0.53;;;14.00;1.00;;;;;;8261104;28;20212;-71
2023/10/08 13:37:29;;;;;;;2.13;0.60;;;14.00;1.00;;;;;;8270667;28;20194;-69
2023/10/08 13:41:41;;;;;;;1.30;0.77;;;13.30;1.00;;;;;;8269429;28;20194;-73
2023/10/08 13:45:42;;;;;;;1.27;0.67;;;13.10;1.00;;;;;;8266882;28;20286;-70
2023/10/08 13:49:43;;;;;;;1.10;0.70;;;13.20;1.00;;;;;;8251761;28;20203;-69
2023/10/08 13:53:53;;;;;;;1.77;0.60;;;13.40;1.00;;;;;;8259441;28;20281;-68
2023/10/08 13:57:54;;;;;;;1.20;0.57;;;13.40;1.00;;;;;;8268240;28;20201;-71
2023/10/08 14:01:56;;;;;;;2.37;0.53;;;13.40;1.00;;;;;;8270791;28;20222;-71
2023/10/08 14:06:02;;;;;;;1.13;0.50;;;13.40;1.00;;;;;;8252201;28;20229;-70
2023/10/08 14:10:08;;;;;;;1.87;0.33;;;13.30;1.00;;;;;;8255512;28;20520;-66
2023/10/08 14:14:10;;;;;;;0.90;0.50;;;13.30;1.00;;;;;;8254060;28;20207;-69
2023/10/08 14:18:16;;;;;;;2.37;0.60;;;13.20;1.00;;;;;;8249574;28;20746;-69
2023/10/08 14:22:21;;;;;;;1.10;0.50;;;13.10;1.00;;;;;;8268172;28;20191;-67
2023/10/08 14:26:22;;;;;;;1.20;0.70;;;13.10;1.00;;;;;;8242542;28;20294;-70
2023/10/08 14:30:25;;;;;;;1.17;0.70;;;13.20;1.00;;;;;;8251129;28;20198;-69
2023/10/08 14:43:04;;;;;;;1.47;1.07;;;12.80;1.00;;;;;;8272099;28;20206;-69
2023/10/08 14:47:05;;;;;;;1.50;0.90;;;12.40;1.00;;;;;;8267693;28;20612;-70
2023/10/08 14:51:16;;;;;;;1.07;0.60;;;12.30;1.00;;;;;;8250881;28;20191;-71
2023/10/08 14:55:16;;;;;;;2.33;1.27;;;12.40;1.00;;;;;;8269942;28;20207;-70
2023/10/08 14:59:18;;;;;;;2.63;1.43;;;12.60;1.00;;;;;;8264260;28;20242;-69
2023/10/08 15:03:20;;;;;;;2.23;1.30;;;12.60;1.00;;;;;;8264769;28;20263;-69
2023/10/08 15:07:21;;;;;;;2.00;1.07;;;12.70;1.00;;;;;;8277099;28;20219;-70
2023/10/08 15:11:22;;;;;;;1.80;0.87;;;12.60;1.00;;;;;;8254385;28;20187;-70
2023/10/08 15:15:25;;;;;;;1.57;0.60;;;12.50;1.00;;;;;;8254536;28;20213;-71
2023/10/08 15:19:25;;;;;;;1.47;0.77;;;12.40;1.00;;;;;;8256722;28;20187;-70
2023/10/08 15:23:27;;;;;;;0.97;0.67;;;12.20;1.00;;;;;;8274333;28;20202;-70
2023/10/08 15:27:31;;;;;;;0.67;0.40;;;12.00;1.00;;;;;;8270939;28;20191;-71
2023/10/08 15:31:32;;;;;;;1.83;0.47;;;11.80;1.00;;;;;;8273807;28;20183;-70
2023/10/08 15:35:33;;;;;;;0.70;0.60;;;11.70;1.00;;;;;;8275684;28;20230;-71
2023/10/08 15:39:34;;;;;;;1.37;0.43;;;11.50;1.00;;;;;;8276450;28;20198;-70
2023/10/08 15:43:36;;;;;;;0.90;0.60;;;11.30;1.00;;;;;;8268639;28;20214;-70
2023/10/08 15:47:37;;;;;;;0.80;0.50;;;11.20;1.00;;;;;;8255795;28;20194;-70
2023/10/08 15:51:38;;;;;;;1.03;0.70;;;11.00;1.00;;;;;;8277563;28;20187;-70
2023/10/08 15:55:39;;;;;;;1.50;1.00;;;10.70;1.00;;;;;;8275612;28;20214;-70
2023/10/08 15:59:41;;;;;;;0.77;0.60;;;10.50;1.00;;;;;;8262963;28;20418;-70
2023/10/08 16:03:43;;;;;;;0.90;0.50;;;10.20;1.00;;;;;;8280688;28;20190;-70
2023/10/08 16:07:44;;;;;;;1.37;0.60;;;9.90;8.40;;;;;;8269491;28;20192;-70
2023/10/08 16:11:44;;;;;;;0.70;0.50;;;9.70;39.50;;;;;;8258831;28;20266;-71
2023/10/08 16:15:45;;;;;;;0.60;0.37;;;9.30;79.90;;;;;;8255004;28;20306;-70
2023/10/08 16:19:47;;;;;;;1.20;0.57;;;9.00;99.90;;;;;;8258597;28;20184;-70
2023/10/08 16:23:48;;;;;;;1.33;0.60;;;8.70;99.90;;;;;;8261566;28;20412;-70
2023/10/08 16:27:52;;;;;;;0.60;0.40;;;8.40;99.90;;;;;;8267181;28;20580;-71
2023/10/08 16:31:53;;;;;;;0.70;0.50;;;8.10;99.90;;;;;;8272199;28;20191;-71
2023/10/08 16:35:58;;;;;;;0.77;0.50;;;7.90;99.90;;;;;;8255979;28;20215;-70
2023/10/08 16:39:59;;;;;;;0.93;0.60;;;7.60;99.90;;;;;;8282567;28;20183;-69
2023/10/08 16:44:01;;;;;;;0.80;0.60;;;7.50;99.90;;;;;;8268383;28;20241;-70
2023/10/08 16:48:03;;;;;;;0.73;0.40;;;7.40;99.90;;;;;;8283878;28;20576;-69
2023/10/08 16:52:04;;;;;;;1.10;0.70;;;7.30;99.90;;;;;;8261580;28;20198;-68
2023/10/08 16:56:06;;;;;;;1.90;0.53;;;7.10;99.90;;;;;;8260209;28;20204;-70
2023/10/08 17:00:10;;;;;;;0.80;0.60;;;7.00;99.90;;;;;;8258298;28;20214;-64
2023/10/08 17:04:12;;;;;;;1.63;0.70;;;6.90;99.90;;;;;;8270816;28;20542;-64
2023/10/08 17:08:13;;;;;;;1.47;0.77;;;6.70;1.00;;;;;;8267094;28;20179;-65
2023/10/08 17:12:17;;;;;;;1.03;0.77;;;6.60;1.00;;;;;;8272594;28;20572;-65
2023/10/08 17:16:18;;;;;;;0.77;0.53;;;6.50;1.00;;;;;;8270077;28;20211;-65
2023/10/08 17:20:23;;;;;;;0.60;0.50;;;6.50;1.00;;;;;;8253299;28;20306;-63
2023/10/08 17:24:23;;;;;;;0.57;0.50;;;6.40;24.80;;;;;;8251298;28;20369;-62
2023/10/08 17:28:25;;;;;;;0.93;0.60;;;6.40;87.70;;;;;;8268617;28;20302;-63
2023/10/08 17:32:26;;;;;;;0.97;0.60;;;6.40;99.90;;;;;;8269124;28;20183;-64
2023/10/08 17:36:29;;;;;;;1.63;0.80;;;6.40;99.90;;;;;;8250577;28;20218;-63
2023/10/08 17:40:30;;;;;;;1.27;0.80;;;6.40;99.90;;;;;;8267828;28;20183;-64
2023/10/08 17:44:33;;;;;;;0.87;0.67;;;6.50;99.90;;;;;;8243158;28;20268;-62
2023/10/08 17:48:36;;;;;;;0.53;0.40;;;6.50;99.90;;;;;;8250258;28;20183;-63
2023/10/08 17:52:37;;;;;;;1.43;0.90;;;6.60;99.90;;;;;;8270414;28;20211;-64
2023/10/08 17:56:38;;;;;;;0.70;0.50;;;6.60;99.90;;;;;;8268913;28;20200;-62
2023/10/08 18:00:42;;;;;;;0.57;0.53;;;6.70;99.90;;;;;;8250012;28;20258;-63
2023/10/08 18:04:43;;;;;;;1.27;0.73;;;6.70;99.90;;;;;;8257753;28;20187;-64
2023/10/08 18:08:49;;;;;;;0.93;0.67;;;6.80;99.90;;;;;;8250621;28;20187;-63
2023/10/08 18:12:51;;;;;;;1.10;0.50;;;6.80;99.90;;;;;;8257039;28;20202;-65
2023/10/08 18:16:52;;;;;;;1.00;0.60;;;6.80;99.90;;;;;;8256311;28;20210;-63
2023/10/08 18:20:54;;;;;;;0.53;0.40;;;6.70;99.90;;;;;;8254091;28;20213;-63
2023/10/08 18:24:55;;;;;;;0.80;0.50;;;6.70;99.90;;;;;;8269917;28;20297;-62
2023/10/08 18:28:55;;;;;;;1.33;0.90;;;6.70;99.90;;;;;;8266863;28;20187;-62
2023/10/08 18:32:56;;;;;;;1.43;0.60;;;6.80;99.90;;;;;;8270138;28;20191;-62
2023/10/08 18:37:00;;;;;;;1.20;0.87;;;6.80;99.90;;;;;;8266789;28;20207;-64
2023/10/08 18:41:01;;;;;;;3.00;0.70;;;6.80;99.90;;;;;;8251389;28;20187;-62
2023/10/08 18:45:03;;;;;;;0.63;0.40;;;6.90;1.00;;;;;;8266481;28;20191;-63
2023/10/08 18:49:10;;;;;;;0.67;0.50;;;6.90;1.00;;;;;;8268254;28;20187;-63
2023/10/08 18:53:12;;;;;;;1.17;0.70;;;6.90;1.00;;;;;;8249580;28;20187;-63
2023/10/08 18:57:15;;;;;;;0.70;0.50;;;6.90;47.10;;;;;;8248626;28;21665;-63
2023/10/08 19:01:19;;;;;;;1.53;0.60;;;6.90;99.90;;;;;;8248780;28;20234;-63
2023/10/08 19:05:22;;;;;;;0.67;0.60;;;6.90;99.90;;;;;;8248114;28;20199;-63
2023/10/08 19:09:23;;;;;;;0.70;0.67;;;7.00;99.90;;;;;;8266472;28;20187;-64
2023/10/08 19:13:24;;;;;;;1.83;0.80;;;7.00;99.90;;;;;;8267951;28;20190;-65
2023/10/08 19:17:26;;;;;;;0.80;0.60;;;7.00;99.90;;;;;;8267268;28;20192;-64
2023/10/08 19:21:28;;;;;;;1.67;0.70;;;7.00;99.90;;;;;;8250830;28;20189;-63
2023/10/08 19:25:30;;;;;;;3.37;0.80;;;7.10;99.90;;;;;;8248242;28;20230;-64
2023/10/08 19:29:32;;;;;;;1.37;0.80;;;7.10;99.90;;;;;;8267300;28;20184;-63
2023/10/08 19:33:34;;;;;;;1.30;0.63;;;7.20;99.90;;;;;;8266836;28;20278;-63
2023/10/08 19:37:36;;;;;;;1.10;0.80;;;7.20;99.90;;;;;;8270024;28;20743;-63
2023/10/08 19:41:43;;;;;;;2.00;0.90;;;7.20;99.90;;;;;;8266595;28;20184;-67
2023/10/08 19:45:47;;;;;;;2.13;0.90;;;7.20;45.40;;;;;;8252684;28;20605;-69
2023/10/08 19:49:48;;;;;;;1.00;0.77;;;7.20;1.00;;;;;;8279215;28;20214;-67
2023/10/08 19:53:52;;;;;;;1.40;0.70;;;7.20;1.00;;;;;;8280867;28;20238;-67
2023/10/08 19:57:53;;;;;;;1.07;0.70;;;7.30;1.00;;;;;;8260505;28;20183;-68
2023/10/08 20:01:54;;;;;;;1.20;0.70;;;7.30;1.00;;;;;;8281196;28;20203;-70
2023/10/08 20:05:55;;;;;;;1.10;0.80;;;7.30;1.00;;;;;;8268028;28;20219;-69
2023/10/08 20:09:56;;;;;;;1.60;0.80;;;7.30;1.00;;;;;;8277060;28;20209;-69
2023/10/08 20:14:01;;;;;;;1.30;1.20;;;7.30;1.00;;;;;;8261791;28;20207;-68
2023/10/08 20:18:05;;;;;;;1.67;1.10;;;7.30;1.00;;;;;;8261123;28;20180;-69
2023/10/08 20:22:07;;;;;;;1.40;1.03;;;7.30;1.00;;;;;;8262060;28;20310;-69
2023/10/08 20:26:14;;;;;;;1.30;0.90;;;7.40;1.00;;;;;;8281920;28;20203;-70
2023/10/08 20:30:15;;;;;;;1.73;1.10;;;7.40;1.00;;;;;;8261534;28;20187;-70
2023/10/08 20:34:16;;;;;;;1.97;1.00;;;7.40;1.00;;;;;;8281257;28;20206;-69
2023/10/08 20:38:21;;;;;;;1.17;0.97;;;7.40;1.00;;;;;;8267754;28;20266;-70
2023/10/08 20:42:21;;;;;;;2.60;1.50;;;7.40;1.00;;;;;;8260474;28;20474;-64
2023/10/08 20:46:22;;;;;;;2.77;1.10;;;7.40;1.00;;;;;;8273039;28;20191;-63
2023/10/08 20:50:25;;;;;;;3.10;1.70;;;7.50;1.00;;;;;;8251518;28;20210;-64
2023/10/08 20:54:28;;;;;;;2.63;1.60;;;7.50;1.00;;;;;;8269031;28;20211;-65
2023/10/08 20:58:29;;;;;;;2.07;1.53;;;7.50;1.00;;;;;;8269881;28;20257;-65
2023/10/08 21:02:30;;;;;;;2.27;1.80;;;7.60;99.90;;;;;;8255443;28;20211;-66
2023/10/08 21:06:32;;;;;;;2.83;2.17;;;7.60;99.90;;;;;;8273304;28;20286;-64
2023/10/08 21:10:34;;;;;;;4.07;2.07;;;7.60;99.90;;;;;;8272635;28;20187;-63
2023/10/08 21:14:35;;;;;;;4.50;2.17;;;7.60;99.90;;;;;;8268976;28;20203;-65
2023/10/08 21:18:36;;;;;;;3.70;2.47;;;7.60;99.90;;;;;;8270143;28;20183;-65
2023/10/08 21:22:44;;;;;;;4.40;2.47;;;7.70;99.90;;;;;;8272965;28;20191;-63
2023/10/08 21:26:44;;;;;;;7.60;4.00;;;7.80;86.50;;;;;;8256375;28;20203;-64
2023/10/08 21:30:45;;;;;;;12.07;5.53;;;7.80;1.00;;;;;;8252804;28;20237;-64
2023/10/08 21:34:50;;;;;;;23.73;10.40;;;7.80;1.00;;;;;;8270230;28;20215;-64
2023/10/08 21:38:50;;;;;;;19.37;9.50;;;7.80;1.00;;;;;;8269726;28;20182;-63
2023/10/08 21:42:52;;;;;;;19.57;9.57;;;7.80;1.00;;;;;;8255056;28;20239;-64
2023/10/08 21:46:52;;;;;;;12.80;7.33;;;7.80;1.00;;;;;;8270824;28;20518;-65
2023/10/08 21:50:53;;;;;;;7.33;4.47;;;7.80;1.00;;;;;;8273671;28;20270;-64
2023/10/08 21:54:54;;;;;;;7.07;3.80;;;7.80;1.00;;;;;;8254497;28;20220;-64
2023/10/08 21:58:55;;;;;;;7.20;3.53;;;7.80;39.70;;;;;;8253060;28;20215;-64
2023/10/08 22:03:01;;;;;;;30.80;12.77;;;7.80;96.10;;;;;;8258467;28;20245;-68
2023/10/08 22:07:05;;;;;;;56.43;21.47;;;7.80;97.20;;;;;;8277374;28;20185;-70